Time;durP1;ratioP1;P1;durP2;ratioP2;P2;SDS_P1;SDS_P2;PMS_P1;PMS_P2;Temp;Humidity;BMP_temperature;BMP_pressure;BME280_temperature;BME280_humidity;BME280_pressure;Samples;Min_cycle;Max_cycle;Signal;HPM_P1;HPM_P2
2022/04/29 00:00:34;;;;;;;0.60;0.60;;;9.40;99.90;;;;;;4414768;32;20116;-68
2022/04/29 00:03:00;;;;;;;3.60;1.75;;;9.20;99.90;;;;;;4430098;32;20070;-68
2022/04/29 00:05:26;;;;;;;1.75;0.93;;;9.10;99.90;;;;;;4427927;32;20089;-67
2022/04/29 00:07:52;;;;;;;1.17;1.10;;;9.40;99.90;;;;;;4428571;32;20467;-67
2022/04/29 00:10:19;;;;;;;2.30;1.27;;;9.50;99.90;;;;;;4428118;32;20116;-67
2022/04/29 00:12:47;;;;;;;1.52;1.15;;;9.60;99.90;;;;;;4431984;32;20062;-67
2022/04/29 00:15:13;;;;;;;3.12;0.62;;;9.70;99.90;;;;;;4427339;32;20545;-67
2022/04/29 00:17:40;;;;;;;1.17;0.93;;;9.70;99.90;;;;;;4427293;32;20106;-67
2022/04/29 00:20:06;;;;;;;0.70;0.60;;;9.70;99.90;;;;;;4428259;32;20061;-67
2022/04/29 00:22:32;;;;;;;2.28;0.80;;;9.70;99.90;;;;;;4416498;32;20078;-67
2022/04/29 00:24:58;;;;;;;0.80;0.75;;;9.50;99.90;;;;;;4434550;32;20119;-67
2022/04/29 00:27:24;;;;;;;0.70;0.62;;;9.50;99.90;;;;;;4425620;32;20105;-67
2022/04/29 00:29:49;;;;;;;1.77;0.93;;;9.50;99.90;;;;;;4407841;32;20086;-67
2022/04/29 00:32:15;;;;;;;3.67;0.90;;;9.30;99.90;;;;;;4428101;32;20062;-67
2022/04/29 00:34:40;;;;;;;0.70;0.70;;;9.20;99.90;;;;;;4429700;32;20065;-67
2022/04/29 00:37:06;;;;;;;6.22;1.27;;;9.10;99.90;;;;;;4427015;32;20143;-67
2022/04/29 00:39:32;;;;;;;0.70;0.70;;;9.30;99.90;;;;;;4426290;32;20081;-67
2022/04/29 00:41:57;;;;;;;0.77;0.70;;;9.40;99.90;;;;;;4423329;32;20081;-67
2022/04/29 00:44:23;;;;;;;0.75;0.75;;;9.40;99.90;;;;;;4424310;32;20065;-67
2022/04/29 00:46:50;;;;;;;0.50;0.50;;;9.20;99.90;;;;;;4426409;32;20073;-67
2022/04/29 00:49:17;;;;;;;2.33;1.05;;;8.90;99.90;;;;;;4428317;32;20081;-67
2022/04/29 00:51:48;;;;;;;0.73;0.73;;;8.70;99.90;;;;;;4426378;32;20061;-67
2022/04/29 00:54:28;;;;;;;0.60;0.60;;;8.70;99.90;;;;;;4425953;32;20485;-67
2022/04/29 00:56:55;;;;;;;0.57;0.57;;;8.70;99.90;;;;;;4412575;32;20540;-67
2022/04/29 00:59:28;;;;;;;0.50;0.50;;;8.70;99.90;;;;;;4407303;32;20081;-67
2022/04/29 01:01:55;;;;;;;0.70;0.70;;;8.80;99.90;;;;;;4424015;32;20077;-67
2022/04/29 01:04:26;;;;;;;1.83;1.10;;;9.00;99.90;;;;;;4425526;32;20442;-67
2022/04/29 01:06:52;;;;;;;0.57;0.57;;;9.00;99.90;;;;;;4425220;32;20066;-66
2022/04/29 01:09:18;;;;;;;0.50;0.50;;;9.10;99.90;;;;;;4424677;32;20057;-67
2022/04/29 01:11:43;;;;;;;0.73;0.73;;;9.20;99.90;;;;;;4424655;32;20520;-66
2022/04/29 01:14:09;;;;;;;1.15;1.05;;;9.10;99.90;;;;;;4424505;32;20085;-67
2022/04/29 01:16:34;;;;;;;1.12;0.75;;;9.00;99.90;;;;;;4426950;32;20070;-67
2022/04/29 01:19:00;;;;;;;1.37;0.60;;;8.90;99.90;;;;;;4427152;32;20393;-66
2022/04/29 01:21:26;;;;;;;0.68;0.68;;;9.00;99.90;;;;;;4427638;32;20313;-67
2022/04/29 01:23:52;;;;;;;0.37;0.37;;;9.10;99.90;;;;;;4426652;32;20074;-67
2022/04/29 01:26:17;;;;;;;0.30;0.30;;;9.00;99.90;;;;;;4425516;32;20094;-67
2022/04/29 01:28:45;;;;;;;1.17;0.77;;;9.10;99.90;;;;;;4412464;32;20126;-67
2022/04/29 01:31:14;;;;;;;1.98;0.73;;;9.00;99.90;;;;;;4416803;32;20081;-67
2022/04/29 01:33:42;;;;;;;1.75;1.15;;;9.00;99.90;;;;;;4409924;32;20058;-67
2022/04/29 01:36:08;;;;;;;1.45;0.93;;;8.90;99.90;;;;;;4428970;32;20108;-67
2022/04/29 01:38:34;;;;;;;1.70;0.85;;;8.80;99.90;;;;;;4439847;32;20080;-67
2022/04/29 01:41:00;;;;;;;1.35;1.08;;;8.80;99.90;;;;;;4439547;32;20349;-67
2022/04/29 01:43:25;;;;;;;4.35;0.90;;;8.90;99.90;;;;;;4439297;32;20061;-67
2022/04/29 01:45:50;;;;;;;1.25;0.93;;;8.90;99.90;;;;;;4442550;32;20066;-67
2022/04/29 01:48:16;;;;;;;1.33;0.80;;;8.90;99.90;;;;;;4441739;32;20138;-67
2022/04/29 01:50:42;;;;;;;0.52;0.52;;;9.00;99.90;;;;;;4440161;32;20525;-67
2022/04/29 01:53:07;;;;;;;1.73;1.48;;;9.10;99.90;;;;;;4441827;32;20061;-67
2022/04/29 01:55:32;;;;;;;0.52;0.52;;;9.00;99.90;;;;;;4439803;32;20065;-67
2022/04/29 01:57:58;;;;;;;1.65;1.17;;;9.10;99.90;;;;;;4429140;32;20061;-67
2022/04/29 02:00:24;;;;;;;2.15;1.17;;;9.10;99.90;;;;;;4424930;32;20077;-67
2022/04/29 02:02:49;;;;;;;0.40;0.40;;;8.90;99.90;;;;;;4440784;32;20124;-67
2022/04/29 02:05:15;;;;;;;0.52;0.52;;;8.60;99.90;;;;;;4440737;32;20105;-67
2022/04/29 02:07:43;;;;;;;4.20;0.90;;;8.40;99.90;;;;;;4439714;32;20065;-67
2022/04/29 02:10:09;;;;;;;0.40;0.40;;;8.50;99.90;;;;;;4438434;32;20061;-67
2022/04/29 02:12:35;;;;;;;0.30;0.30;;;8.60;99.90;;;;;;4440476;32;20069;-67
2022/04/29 02:15:01;;;;;;;0.40;0.40;;;8.70;99.90;;;;;;4440288;32;20104;-67
2022/04/29 02:17:26;;;;;;;0.57;0.50;;;8.70;99.90;;;;;;4439597;32;20526;-67
2022/04/29 02:19:52;;;;;;;0.65;0.57;;;8.70;99.90;;;;;;4441466;32;20073;-67
2022/04/29 02:22:17;;;;;;;0.50;0.50;;;8.50;99.90;;;;;;4437111;32;20140;-67
2022/04/29 02:24:43;;;;;;;0.75;0.75;;;8.50;99.90;;;;;;4437652;32;20085;-67
2022/04/29 02:27:08;;;;;;;1.08;0.93;;;8.60;99.90;;;;;;4435865;32;20077;-66
2022/04/29 02:29:35;;;;;;;5.78;1.33;;;8.40;99.90;;;;;;4420102;32;20236;-67
2022/04/29 02:32:01;;;;;;;3.97;0.82;;;8.40;99.90;;;;;;4439328;32;20081;-67
2022/04/29 02:34:27;;;;;;;0.43;0.43;;;8.50;99.90;;;;;;4438408;32;20415;-67
2022/04/29 02:36:53;;;;;;;0.40;0.40;;;8.50;99.90;;;;;;4429705;32;20090;-67
2022/04/29 02:39:19;;;;;;;0.95;0.95;;;8.50;99.90;;;;;;4426719;32;20065;-67
2022/04/29 02:41:46;;;;;;;1.55;0.95;;;8.60;99.90;;;;;;4424232;32;20085;-67
2022/04/29 02:44:11;;;;;;;3.20;0.90;;;8.70;99.90;;;;;;4426385;32;20639;-67
2022/04/29 02:47:06;;;;;;;1.90;0.80;;;8.70;99.90;;;;;;4428061;32;20073;-67
2022/04/29 02:49:23;;;;;;;0.45;0.45;;;8.60;99.90;;;;;;4437982;32;20065;-67
2022/04/29 02:51:48;;;;;;;0.73;0.50;;;8.50;99.90;;;;;;4426800;32;20074;-67
2022/04/29 02:54:14;;;;;;;0.50;0.45;;;8.50;99.90;;;;;;4427958;32;20097;-67
2022/04/29 02:56:40;;;;;;;0.40;0.40;;;8.50;99.90;;;;;;4425547;32;20066;-67
2022/04/29 02:59:05;;;;;;;1.15;0.93;;;8.50;99.90;;;;;;4413063;32;20420;-67
2022/04/29 03:01:33;;;;;;;2.15;0.98;;;8.50;99.90;;;;;;4421509;32;20065;-67
2022/04/29 03:03:59;;;;;;;0.68;0.68;;;8.50;99.90;;;;;;4427729;32;20074;-67
2022/04/29 03:06:25;;;;;;;5.68;0.75;;;8.50;99.90;;;;;;4425170;32;20124;-67
2022/04/29 03:08:50;;;;;;;0.68;0.68;;;8.40;99.90;;;;;;4427148;32;20054;-67
2022/04/29 03:11:15;;;;;;;0.75;0.65;;;8.20;99.90;;;;;;4430025;32;20687;-67
2022/04/29 03:13:41;;;;;;;1.17;0.82;;;8.20;99.90;;;;;;4431671;32;20081;-67
2022/04/29 03:16:06;;;;;;;3.05;1.10;;;8.10;99.90;;;;;;4427759;32;20124;-67
2022/04/29 03:18:32;;;;;;;9.73;2.37;;;8.20;99.90;;;;;;4428376;32;20078;-67
2022/04/29 03:20:57;;;;;;;1.02;0.73;;;8.30;99.90;;;;;;4427534;32;20606;-67
2022/04/29 03:23:24;;;;;;;0.37;0.37;;;8.30;99.90;;;;;;4429891;32;20057;-67
2022/04/29 03:25:50;;;;;;;0.85;0.70;;;8.20;99.90;;;;;;4433460;32;20470;-67
2022/04/29 03:28:15;;;;;;;0.52;0.52;;;8.20;99.90;;;;;;4422693;32;20061;-67
2022/04/29 03:30:41;;;;;;;3.55;2.08;;;8.20;99.90;;;;;;4415021;32;20069;-67
2022/04/29 03:33:08;;;;;;;0.32;0.32;;;8.20;99.90;;;;;;4429464;32;20085;-67
2022/04/29 03:35:43;;;;;;;0.85;0.85;;;8.10;99.90;;;;;;4427751;32;20072;-67
2022/04/29 03:38:09;;;;;;;1.65;1.00;;;8.10;99.90;;;;;;4425596;32;20140;-67
2022/04/29 03:40:34;;;;;;;1.25;1.15;;;8.00;99.90;;;;;;4428988;32;20074;-67
2022/04/29 03:43:00;;;;;;;1.50;1.00;;;7.90;99.90;;;;;;4434707;32;20097;-67
2022/04/29 03:45:26;;;;;;;0.57;0.57;;;7.80;99.90;;;;;;4428685;32;20538;-67
2022/04/29 03:47:54;;;;;;;0.98;0.80;;;7.90;99.90;;;;;;4430951;32;20089;-67
2022/04/29 03:50:23;;;;;;;1.73;0.77;;;7.90;99.90;;;;;;4429009;32;20078;-67
2022/04/29 03:52:51;;;;;;;1.50;0.62;;;8.00;99.90;;;;;;4429623;32;20058;-67
2022/04/29 03:55:19;;;;;;;1.08;0.57;;;7.90;99.90;;;;;;4430821;32;20535;-67
2022/04/29 03:57:44;;;;;;;5.60;0.90;;;7.70;99.90;;;;;;4429067;32;20065;-67
2022/04/29 04:00:11;;;;;;;0.43;0.43;;;7.80;99.90;;;;;;4414222;32;20695;-67
2022/04/29 04:02:36;;;;;;;0.60;0.60;;;7.60;99.90;;;;;;4432887;32;20078;-67
2022/04/29 04:05:02;;;;;;;0.57;0.57;;;7.60;99.90;;;;;;4433195;32;20109;-67
2022/04/29 04:07:28;;;;;;;0.77;0.75;;;7.60;99.90;;;;;;4431697;32;20540;-67
2022/04/29 04:09:53;;;;;;;2.25;0.68;;;7.70;99.90;;;;;;4425150;32;20830;-67
2022/04/29 04:12:20;;;;;;;0.90;0.80;;;7.70;99.90;;;;;;4420740;32;20069;-67
2022/04/29 04:14:45;;;;;;;0.50;0.50;;;7.70;99.90;;;;;;4426782;32;20143;-67
2022/04/29 04:17:11;;;;;;;0.70;0.70;;;7.80;99.90;;;;;;4424805;32;20120;-67
2022/04/29 04:19:37;;;;;;;5.07;2.58;;;7.80;99.90;;;;;;4424805;32;20085;-67
2022/04/29 04:22:03;;;;;;;0.35;0.35;;;7.80;99.90;;;;;;4403066;32;21183;-67
2022/04/29 04:24:29;;;;;;;1.65;0.88;;;7.70;99.90;;;;;;4369201;32;20248;-67
2022/04/29 04:26:55;;;;;;;1.77;1.00;;;7.70;99.90;;;;;;4359850;32;21174;-67
2022/04/29 04:29:20;;;;;;;2.28;1.40;;;7.70;99.90;;;;;;4350827;32;20468;-67
2022/04/29 04:31:47;;;;;;;0.50;0.50;;;7.80;99.90;;;;;;4383378;32;20098;-67
2022/04/29 04:35:11;;;;;;;5.12;1.58;;;7.90;99.90;;;;;;4430018;32;20058;-67
2022/04/29 04:36:58;;;;;;;0.60;0.60;;;8.00;99.90;;;;;;4418022;32;20077;-68
2022/04/29 04:39:24;;;;;;;0.98;0.50;;;8.10;99.90;;;;;;4424704;32;20069;-67
2022/04/29 04:41:50;;;;;;;1.45;0.82;;;8.20;99.90;;;;;;4426704;32;20089;-68
2022/04/29 04:44:16;;;;;;;0.73;0.68;;;8.50;99.90;;;;;;4427331;32;20076;-67
2022/04/29 04:46:42;;;;;;;1.00;0.62;;;8.60;99.90;;;;;;4426941;32;20069;-67
2022/04/29 04:49:07;;;;;;;0.40;0.40;;;8.70;99.90;;;;;;4420954;32;20087;-67
2022/04/29 04:51:33;;;;;;;7.65;1.52;;;8.90;99.90;;;;;;4420244;32;20069;-68
2022/04/29 04:53:59;;;;;;;5.05;1.27;;;9.00;99.90;;;;;;4375830;32;20120;-68
2022/04/29 04:56:26;;;;;;;15.65;1.45;;;9.10;99.90;;;;;;4418541;32;20068;-68
2022/04/29 04:58:51;;;;;;;0.70;0.70;;;9.30;99.90;;;;;;4412554;32;20561;-68
2022/04/29 05:01:17;;;;;;;1.08;0.93;;;9.30;99.90;;;;;;4409468;32;20120;-67
2022/04/29 05:03:43;;;;;;;0.40;0.40;;;9.50;99.90;;;;;;4391677;32;20472;-67
2022/04/29 05:06:09;;;;;;;5.93;1.62;;;9.60;99.90;;;;;;4370780;32;20072;-67
2022/04/29 05:08:34;;;;;;;7.43;0.70;;;9.70;99.90;;;;;;4352824;32;20685;-67
2022/04/29 05:11:00;;;;;;;14.90;1.10;;;9.80;99.90;;;;;;4355429;32;20085;-67
2022/04/29 05:13:25;;;;;;;0.80;0.80;;;9.90;99.90;;;;;;4381193;32;20926;-67
2022/04/29 05:15:51;;;;;;;2.25;1.73;;;10.00;99.90;;;;;;4396311;32;20480;-68
2022/04/29 05:18:17;;;;;;;1.70;0.90;;;10.00;99.90;;;;;;4355078;32;20226;-67
2022/04/29 05:20:43;;;;;;;3.60;1.83;;;10.00;99.90;;;;;;4307947;32;20440;-67
2022/04/29 05:23:09;;;;;;;0.80;0.80;;;10.00;99.90;;;;;;4295417;32;20491;-67
2022/04/29 05:25:35;;;;;;;5.93;0.75;;;10.00;99.90;;;;;;4291147;32;20152;-67
2022/04/29 05:28:01;;;;;;;1.33;1.12;;;10.10;99.90;;;;;;4341948;32;20687;-67
2022/04/29 05:30:28;;;;;;;1.35;0.85;;;10.20;99.90;;;;;;4362476;32;20852;-67
2022/04/29 05:32:54;;;;;;;0.50;0.50;;;10.10;99.90;;;;;;4338121;32;20250;-66
2022/04/29 05:35:20;;;;;;;1.15;0.73;;;10.20;99.90;;;;;;4325998;32;20943;-66
2022/04/29 05:37:46;;;;;;;1.25;0.98;;;10.20;99.90;;;;;;4344995;32;20248;-66
2022/04/29 05:42:18;;;;;;;2.10;0.88;;;10.30;99.90;;;;;;4365815;32;20235;-65
2022/04/29 05:43:02;;;;;;;3.20;1.52;;;10.40;99.90;;;;;;4370827;32;20212;-67
2022/04/29 05:45:28;;;;;;;0.85;0.85;;;10.40;99.90;;;;;;4405185;32;20371;-67
2022/04/29 05:47:54;;;;;;;1.12;1.02;;;10.40;99.90;;;;;;4414749;32;20152;-67
2022/04/29 05:50:21;;;;;;;0.70;0.70;;;10.50;99.90;;;;;;4395836;32;20937;-67
2022/04/29 05:52:47;;;;;;;5.78;1.42;;;10.60;99.90;;;;;;4381454;32;20284;-67
2022/04/29 05:55:14;;;;;;;0.70;0.68;;;10.80;99.90;;;;;;4400597;32;20306;-66
2022/04/29 05:57:39;;;;;;;1.50;0.77;;;10.90;99.90;;;;;;4399702;32;20108;-67
2022/04/29 06:00:06;;;;;;;3.80;2.03;;;11.00;99.90;;;;;;4387253;32;20878;-65
2022/04/29 06:02:33;;;;;;;18.70;1.40;;;11.10;99.90;;;;;;4362049;32;20384;-67
2022/04/29 06:05:01;;;;;;;2.53;1.48;;;11.10;99.90;;;;;;4368279;32;20112;-68
2022/04/29 06:07:27;;;;;;;0.35;0.35;;;11.20;99.90;;;;;;4390484;32;20097;-68
2022/04/29 06:09:53;;;;;;;0.88;0.82;;;11.30;99.90;;;;;;4395280;32;20131;-68
2022/04/29 06:12:19;;;;;;;1.80;1.20;;;11.40;99.90;;;;;;4395567;32;20213;-68
2022/04/29 06:14:46;;;;;;;0.50;0.50;;;11.50;99.90;;;;;;4395380;32;20301;-68
2022/04/29 06:17:12;;;;;;;1.30;0.90;;;11.60;99.90;;;;;;4400364;32;20128;-68
2022/04/29 06:19:39;;;;;;;0.80;0.80;;;11.60;99.90;;;;;;4392417;32;20533;-68
2022/04/29 06:22:05;;;;;;;0.90;0.82;;;11.70;99.90;;;;;;4394659;32;20130;-68
2022/04/29 06:24:31;;;;;;;4.35;0.95;;;11.90;99.90;;;;;;4398463;32;20077;-68
2022/04/29 06:26:56;;;;;;;0.60;0.60;;;12.00;99.90;;;;;;4395356;32;21569;-68
2022/04/29 06:29:22;;;;;;;2.47;0.77;;;12.10;99.90;;;;;;4397123;32;20560;-68
2022/04/29 06:31:47;;;;;;;3.72;1.77;;;12.30;99.90;;;;;;4387037;32;20101;-68
2022/04/29 06:34:13;;;;;;;0.65;0.65;;;12.40;99.90;;;;;;4370876;32;20220;-67
2022/04/29 06:36:38;;;;;;;0.57;0.57;;;12.50;99.90;;;;;;4384975;32;20113;-68
2022/04/29 06:39:04;;;;;;;1.90;0.80;;;12.70;99.90;;;;;;4397207;32;20109;-68
2022/04/29 06:41:29;;;;;;;0.73;0.62;;;12.80;99.90;;;;;;4398449;32;20122;-67
2022/04/29 06:43:55;;;;;;;0.98;0.68;;;12.70;99.90;;;;;;4391279;32;21114;-68
2022/04/29 06:46:24;;;;;;;2.12;0.98;;;13.00;99.90;;;;;;4396730;32;20521;-67
2022/04/29 06:48:50;;;;;;;1.27;0.70;;;13.00;99.90;;;;;;4385964;32;20104;-68
2022/04/29 06:51:15;;;;;;;24.90;1.12;;;13.20;99.90;;;;;;4393966;32;20077;-68
2022/04/29 06:53:41;;;;;;;0.50;0.50;;;13.20;99.90;;;;;;4386986;32;20179;-68
2022/04/29 06:56:06;;;;;;;1.83;0.60;;;13.40;99.90;;;;;;4388294;32;20140;-68
2022/04/29 06:58:32;;;;;;;0.70;0.70;;;13.40;99.90;;;;;;4386557;32;20246;-68
2022/04/29 07:00:57;;;;;;;0.57;0.57;;;13.60;99.90;;;;;;4375077;32;20089;-67
2022/04/29 07:03:23;;;;;;;2.80;1.27;;;13.60;99.90;;;;;;4361840;32;20109;-68
2022/04/29 07:05:52;;;;;;;0.70;0.70;;;13.60;99.50;;;;;;4354354;32;20245;-68
2022/04/29 07:08:20;;;;;;;0.70;0.70;;;13.70;99.30;;;;;;4387760;32;20093;-68
2022/04/29 07:10:45;;;;;;;0.50;0.50;;;13.80;99.20;;;;;;4388847;32;20077;-68
2022/04/29 07:13:12;;;;;;;0.85;0.70;;;13.80;99.10;;;;;;4384815;32;20438;-68
2022/04/29 07:15:43;;;;;;;0.40;0.40;;;13.90;98.20;;;;;;4388833;32;20868;-68
2022/04/29 07:18:09;;;;;;;0.40;0.40;;;14.00;96.10;;;;;;4384410;32;20836;-68
2022/04/29 07:20:35;;;;;;;0.30;0.30;;;14.00;95.00;;;;;;4387194;32;20085;-68
2022/04/29 07:23:00;;;;;;;0.30;0.30;;;14.10;95.80;;;;;;4386620;32;20177;-68
2022/04/29 07:25:26;;;;;;;0.62;0.52;;;14.10;94.80;;;;;;4391022;32;20721;-67
2022/04/29 07:27:51;;;;;;;1.02;0.60;;;14.10;95.40;;;;;;4393074;32;20101;-68
2022/04/29 07:30:17;;;;;;;0.60;0.60;;;14.00;93.30;;;;;;4378650;32;20132;-67
2022/04/29 07:32:42;;;;;;;9.10;0.68;;;14.10;93.70;;;;;;4354443;32;20362;-68
2022/04/29 07:41:46;;;;;;;0.32;0.32;;;14.70;92.50;;;;;;4380808;32;20062;-67
2022/04/29 07:43:25;;;;;;;0.47;0.47;;;14.70;91.50;;;;;;4366757;32;20074;-67
2022/04/29 07:45:51;;;;;;;0.30;0.30;;;14.70;91.70;;;;;;4386574;32;20117;-68
2022/04/29 07:48:18;;;;;;;4.25;1.45;;;14.80;91.50;;;;;;4367564;32;20247;-68
2022/04/29 07:50:45;;;;;;;0.75;0.75;;;14.80;90.80;;;;;;4363913;32;20213;-67
2022/04/29 07:53:13;;;;;;;3.15;0.80;;;14.80;90.80;;;;;;4361955;32;20162;-67
2022/04/29 07:55:39;;;;;;;0.40;0.40;;;15.00;91.70;;;;;;4368028;32;22290;-67
2022/04/29 07:58:04;;;;;;;1.20;0.82;;;15.00;90.50;;;;;;4365517;32;20401;-67
2022/04/29 08:00:31;;;;;;;0.40;0.40;;;15.00;90.70;;;;;;4369014;32;20077;-67
2022/04/29 08:03:01;;;;;;;25.17;1.12;;;15.10;91.20;;;;;;4367425;32;20271;-67
2022/04/29 08:05:27;;;;;;;0.30;0.30;;;15.10;90.00;;;;;;4363427;32;20282;-67
2022/04/29 08:07:55;;;;;;;0.22;0.22;;;15.00;88.60;;;;;;4371278;32;20077;-67
2022/04/29 08:10:21;;;;;;;2.53;1.02;;;15.20;89.60;;;;;;4367691;32;22605;-67
2022/04/29 08:12:47;;;;;;;4.28;1.27;;;15.40;87.80;;;;;;4364410;32;21382;-67
2022/04/29 08:15:13;;;;;;;1.02;0.50;;;15.40;87.30;;;;;;4373863;32;20556;-68
2022/04/29 08:17:39;;;;;;;0.25;0.25;;;15.20;87.60;;;;;;4370679;32;20248;-67
2022/04/29 08:20:08;;;;;;;0.90;0.82;;;15.00;87.70;;;;;;4361542;32;20101;-67
2022/04/29 08:22:34;;;;;;;0.30;0.30;;;14.90;87.80;;;;;;4377145;32;20280;-67
2022/04/29 08:25:00;;;;;;;0.50;0.50;;;15.00;88.70;;;;;;4374691;32;20077;-66
2022/04/29 08:27:27;;;;;;;0.35;0.35;;;15.20;88.50;;;;;;4365704;32;20243;-67
2022/04/29 08:29:52;;;;;;;0.30;0.30;;;15.40;87.70;;;;;;4377105;32;20113;-67
2022/04/29 08:32:18;;;;;;;1.55;0.88;;;15.60;89.70;;;;;;4369668;32;20105;-69
2022/04/29 08:34:44;;;;;;;1.08;0.90;;;15.80;87.40;;;;;;4357425;32;20093;-68
2022/04/29 08:37:09;;;;;;;1.27;1.17;;;15.80;85.50;;;;;;4377246;32;20126;-67
2022/04/29 08:39:35;;;;;;;0.77;0.43;;;15.50;85.90;;;;;;4380348;32;20429;-67
2022/04/29 08:42:02;;;;;;;0.52;0.50;;;15.60;86.30;;;;;;4380174;32;20100;-67
2022/04/29 08:44:31;;;;;;;0.52;0.52;;;15.70;85.80;;;;;;4382115;32;20105;-66
2022/04/29 08:46:58;;;;;;;3.97;1.40;;;15.90;86.10;;;;;;4388027;32;20089;-66
2022/04/29 08:49:25;;;;;;;0.82;0.73;;;15.90;85.30;;;;;;4389186;32;20417;-66
2022/04/29 08:51:51;;;;;;;0.47;0.47;;;15.90;85.30;;;;;;4389395;32;22281;-66
2022/04/29 08:58:38;;;;;;;2.60;0.65;;;16.00;86.60;;;;;;4381427;32;20258;-67
2022/04/29 08:59:58;;;;;;;0.47;0.47;;;16.00;86.50;;;;;;4367130;32;20137;-68
2022/04/29 09:02:25;;;;;;;0.73;0.73;;;16.00;87.00;;;;;;4399352;32;20139;-68
2022/04/29 09:04:53;;;;;;;0.55;0.55;;;16.10;86.60;;;;;;4376321;32;20197;-68
2022/04/29 09:07:19;;;;;;;0.98;0.80;;;16.30;88.40;;;;;;4382294;32;20135;-68
2022/04/29 09:10:02;;;;;;;0.22;0.22;;;16.50;88.40;;;;;;4389770;32;21346;-69
2022/04/29 09:12:28;;;;;;;0.45;0.45;;;16.70;86.50;;;;;;4390170;32;20101;-68
2022/04/29 09:15:10;;;;;;;0.45;0.45;;;17.00;87.60;;;;;;4390697;32;20281;-68
2022/04/29 09:17:38;;;;;;;0.93;0.70;;;17.30;85.70;;;;;;4370255;32;20231;-68
2022/04/29 09:20:11;;;;;;;1.45;0.88;;;17.10;83.50;;;;;;4359901;32;20092;-66
2022/04/29 09:22:39;;;;;;;0.40;0.40;;;17.20;84.70;;;;;;4365734;32;20198;-67
2022/04/29 09:25:05;;;;;;;0.30;0.30;;;17.40;84.10;;;;;;4383994;32;20347;-67
2022/04/29 09:27:49;;;;;;;0.47;0.47;;;17.60;85.10;;;;;;4380153;32;20628;-67
2022/04/29 09:30:14;;;;;;;0.93;0.60;;;17.70;83.60;;;;;;4368537;32;22653;-67
2022/04/29 09:32:52;;;;;;;0.77;0.65;;;17.90;83.50;;;;;;4355848;32;20112;-67
2022/04/29 09:35:35;;;;;;;0.88;0.77;;;18.10;82.80;;;;;;4375603;32;20317;-68
2022/04/29 09:39:34;;;;;;;0.30;0.30;;;18.10;81.00;;;;;;4387809;32;20117;-67
2022/04/29 09:40:48;;;;;;;0.32;0.32;;;17.70;82.30;;;;;;4381141;32;21295;-68
2022/04/29 09:43:14;;;;;;;0.70;0.70;;;17.40;84.90;;;;;;4397055;32;20109;-67
2022/04/29 09:45:40;;;;;;;0.30;0.30;;;17.30;86.50;;;;;;4403689;32;20970;-68
2022/04/29 09:48:09;;;;;;;0.50;0.50;;;17.10;82.20;;;;;;4388241;32;20240;-66
2022/04/29 09:50:50;;;;;;;0.80;0.60;;;17.10;82.50;;;;;;4384621;32;20397;-66
2022/04/29 09:53:17;;;;;;;0.40;0.40;;;17.10;84.30;;;;;;4390014;32;20109;-67
2022/04/29 09:56:05;;;;;;;0.30;0.30;;;17.30;81.40;;;;;;4397165;32;20959;-66
2022/04/29 09:58:32;;;;;;;0.20;0.20;;;17.60;81.20;;;;;;4379125;32;20867;-67
2022/04/29 10:00:59;;;;;;;4.28;0.95;;;17.80;81.90;;;;;;4378087;32;20089;-67
2022/04/29 10:03:25;;;;;;;0.40;0.40;;;18.10;81.70;;;;;;4383585;32;20097;-67
2022/04/29 10:05:51;;;;;;;0.30;0.30;;;18.10;78.10;;;;;;4388852;32;20315;-67
2022/04/29 10:08:18;;;;;;;4.57;0.93;;;18.00;79.60;;;;;;4398232;32;21150;-67
2022/04/29 10:10:46;;;;;;;0.35;0.35;;;18.20;78.40;;;;;;4399302;32;20735;-67
2022/04/29 10:13:14;;;;;;;0.95;0.68;;;18.50;77.20;;;;;;4399636;32;20088;-67
2022/04/29 10:15:41;;;;;;;0.40;0.40;;;18.70;75.90;;;;;;4396957;32;20133;-66
2022/04/29 10:21:29;;;;;;;0.30;0.30;;;19.10;77.50;;;;;;4368648;32;20078;-67
2022/04/29 10:23:48;;;;;;;0.80;0.80;;;19.30;76.90;;;;;;4378223;32;20647;-66
2022/04/29 10:26:17;;;;;;;2.75;0.85;;;19.30;76.20;;;;;;4387728;32;20272;-67
2022/04/29 10:28:44;;;;;;;2.50;1.00;;;19.50;75.40;;;;;;4390051;32;20462;-67
2022/04/29 10:31:17;;;;;;;0.57;0.57;;;19.50;74.50;;;;;;4394604;32;20073;-67
2022/04/29 10:33:42;;;;;;;2.62;1.00;;;19.60;73.20;;;;;;4381706;32;21539;-67
2022/04/29 10:36:09;;;;;;;0.30;0.30;;;19.60;74.80;;;;;;4382382;32;20904;-67
2022/04/29 10:38:39;;;;;;;0.40;0.40;;;19.40;72.60;;;;;;4402016;32;20877;-68
2022/04/29 10:41:14;;;;;;;0.50;0.50;;;19.10;73.80;;;;;;4403119;32;20352;-68
2022/04/29 10:43:59;;;;;;;0.55;0.52;;;19.40;74.20;;;;;;4401126;32;20318;-67
2022/04/29 10:46:39;;;;;;;0.30;0.30;;;19.50;71.60;;;;;;4404665;32;20505;-68
2022/04/29 10:49:26;;;;;;;0.30;0.30;;;19.30;70.40;;;;;;4390040;32;20068;-67
2022/04/29 10:51:55;;;;;;;0.30;0.30;;;19.40;70.50;;;;;;4375458;32;20120;-67
2022/04/29 10:54:41;;;;;;;0.30;0.30;;;19.60;70.90;;;;;;4380437;32;20121;-69
2022/04/29 10:57:08;;;;;;;0.40;0.40;;;20.00;71.30;;;;;;4358430;32;20683;-69
2022/04/29 10:59:52;;;;;;;4.55;0.70;;;20.40;68.90;;;;;;4364520;32;20417;-69
2022/04/29 11:02:28;;;;;;;0.40;0.40;;;20.90;66.80;;;;;;4356868;32;20325;-69
2022/04/29 11:04:55;;;;;;;0.30;0.30;;;21.00;64.40;;;;;;4368424;32;20811;-69
2022/04/29 11:07:42;;;;;;;0.50;0.50;;;20.90;66.80;;;;;;4387729;32;20583;-68
2022/04/29 11:10:10;;;;;;;9.95;4.85;;;21.00;65.30;;;;;;4377914;32;20085;-68
2022/04/29 11:12:39;;;;;;;0.55;0.55;;;21.20;65.70;;;;;;4384299;32;20440;-67
2022/04/29 11:15:07;;;;;;;0.60;0.60;;;21.40;65.60;;;;;;4391443;32;20146;-68
2022/04/29 11:17:35;;;;;;;0.80;0.55;;;21.20;65.20;;;;;;4389464;32;20176;-68
2022/04/29 11:20:20;;;;;;;4.50;1.17;;;21.20;66.50;;;;;;4381886;32;20081;-68
2022/04/29 11:25:03;;;;;;;0.68;0.52;;;21.40;66.10;;;;;;4376848;32;20458;-67
2022/04/29 11:25:53;;;;;;;0.65;0.65;;;21.70;63.40;;;;;;4374388;32;20613;-67
2022/04/29 11:28:19;;;;;;;0.40;0.40;;;22.20;64.60;;;;;;4394835;32;20159;-68
2022/04/29 11:30:47;;;;;;;0.30;0.30;;;22.40;62.70;;;;;;4382448;32;20616;-68
2022/04/29 11:33:12;;;;;;;0.75;0.40;;;22.60;61.90;;;;;;4378239;32;20974;-68
2022/04/29 11:35:39;;;;;;;0.50;0.50;;;22.80;59.80;;;;;;4384480;32;20760;-68
2022/04/29 11:38:07;;;;;;;3.53;0.45;;;23.10;62.80;;;;;;4374099;32;20229;-66
2022/04/29 11:40:37;;;;;;;0.30;0.30;;;22.70;59.40;;;;;;4376609;32;21061;-66
2022/04/29 11:43:08;;;;;;;3.37;0.47;;;22.80;58.30;;;;;;4374906;32;20249;-67
2022/04/29 11:45:33;;;;;;;0.40;0.40;;;22.60;59.50;;;;;;4388825;32;20096;-69
2022/04/29 11:48:04;;;;;;;0.47;0.47;;;22.90;59.00;;;;;;4370595;32;20255;-67
2022/04/29 11:50:31;;;;;;;0.20;0.20;;;22.90;58.60;;;;;;4371169;32;20952;-67
2022/04/29 11:53:04;;;;;;;0.40;0.35;;;22.80;56.90;;;;;;4373844;32;20585;-68
2022/04/29 11:55:29;;;;;;;0.30;0.30;;;22.90;58.20;;;;;;4391417;32;20679;-67
2022/04/29 11:57:57;;;;;;;0.25;0.25;;;23.10;58.40;;;;;;4394172;32;20231;-67
2022/04/29 12:00:25;;;;;;;0.10;0.10;;;23.60;56.70;;;;;;4365965;32;20520;-67
2022/04/29 12:02:53;;;;;;;0.30;0.30;;;24.00;57.70;;;;;;4380815;32;20270;-68
2022/04/29 12:05:23;;;;;;;0.32;0.32;;;24.70;55.80;;;;;;4384729;32;20061;-68
2022/04/29 12:07:49;;;;;;;0.17;0.17;;;24.70;54.20;;;;;;4365167;32;20097;-68
2022/04/29 12:10:20;;;;;;;0.75;0.62;;;23.90;55.10;;;;;;4365294;32;21576;-68
2022/04/29 12:12:47;;;;;;;0.43;0.43;;;23.70;55.20;;;;;;4392702;32;20092;-68
2022/04/29 12:15:15;;;;;;;0.32;0.32;;;24.20;55.50;;;;;;4385751;32;20117;-67
2022/04/29 12:17:41;;;;;;;0.45;0.43;;;23.90;56.00;;;;;;4392073;32;20651;-68
2022/04/29 12:20:09;;;;;;;0.22;0.22;;;24.50;54.10;;;;;;4379651;32;20295;-69
2022/04/29 12:22:36;;;;;;;0.65;0.65;;;24.70;55.60;;;;;;4384473;32;20076;-68
2022/04/29 12:25:26;;;;;;;1.85;0.65;;;24.70;53.90;;;;;;4361918;32;20517;-68
2022/04/29 12:28:14;;;;;;;0.65;0.43;;;25.10;55.00;;;;;;4390045;32;20172;-68
2022/04/29 12:34:49;;;;;;;0.30;0.30;;;24.60;55.00;;;;;;4347370;32;20112;-68
2022/04/29 12:36:57;;;;;;;0.22;0.22;;;25.20;53.80;;;;;;4394365;32;20365;-67
2022/04/29 12:39:25;;;;;;;0.10;0.10;;;25.30;52.30;;;;;;4387424;32;20110;-68
2022/04/29 12:42:02;;;;;;;0.15;0.15;;;25.70;52.40;;;;;;4403359;32;20310;-68
2022/04/29 12:45:18;;;;;;;0.43;0.15;;;25.70;50.70;;;;;;4403792;32;20113;-67
2022/04/29 12:47:32;;;;;;;1.67;0.62;;;25.20;51.20;;;;;;4398141;32;20117;-67
2022/04/29 12:50:24;;;;;;;1.05;0.32;;;25.00;49.20;;;;;;4384179;32;20080;-66
2022/04/29 12:53:16;;;;;;;0.00;0.00;;;25.20;49.60;;;;;;4394185;32;20101;-68
2022/04/29 12:55:44;;;;;;;4.22;0.22;;;25.50;49.90;;;;;;4400860;32;20589;-68
2022/04/29 12:58:15;;;;;;;0.10;0.10;;;25.20;50.10;;;;;;4405669;32;20992;-67
2022/04/29 13:00:44;;;;;;;0.20;0.20;;;25.10;50.30;;;;;;4377466;32;20085;-67
2022/04/29 13:03:16;;;;;;;0.13;0.13;;;25.40;51.70;;;;;;4393819;32;20553;-66
2022/04/29 13:05:42;;;;;;;0.75;0.40;;;25.60;51.30;;;;;;4405290;32;20799;-67
2022/04/29 13:08:09;;;;;;;0.43;0.40;;;26.10;51.60;;;;;;4393296;32;20120;-67
2022/04/29 13:10:44;;;;;;;1.27;0.77;;;26.50;49.70;;;;;;4393968;32;20183;-67